Ocean Trader — V2FS4 — position and weather

sailwx.info

Track history (hours):
 
Tides and Currents Weather Stations Pressure Air Temp Water Temp Dewpoint Dewpoint Depression Visibility Wind Speed Wind Dir Waves Ship Positions

Ocean Trader

Last reported at 2016-Sep-24 02:29 UTC. Time now 2016-Sep-26 07:01 UTC.
Position N 39°44' W 009°50'.

Length 107 m; draft 8.3 m.

Type: Cargo ship. MMSI: 305780000.

Date/timePositionNaut miles runAvg speedWind from/ knotsBaromVisibWave heightAir tempDewpointWater temp
2016-Sep-24 02:29N 39°44' W 009°50'1110.8
2016-Sep-24 01:28N 39°33' W 009°50'910.3
2016-Sep-24 00:33N 39°23' W 009°50'5210.4
2016-Sep-23 19:33N 38°31' W 009°47'2010.1
2016-Sep-23 17:33N 38°11' W 009°42'1010.1
2016-Sep-23 16:33N 38°02' W 009°39'1010.3
2016-Sep-23 15:33N 37°52' W 009°36'342 8.8
2016-Sep-22 00:33N 36°22' W 002°42'1110.7
2016-Sep-21 23:34N 36°24' W 002°29'1010.3
2016-Sep-21 22:34N 36°26' W 002°17'3110.3
2016-Sep-21 19:33N 36°48' W 001°50'  
2016-Sep-17 13:33N 35°43' W 000°38'222 8.9
2016-Sep-16 12:33N 35°58' W 005°12'295 9.2
2016-Sep-15 04:33N 38°57' W 010°06'1111.3
2016-Sep-15 03:33N 39°08' W 010°06'  
Track history (hours):
 
Tides and Currents Weather Stations Pressure Air Temp Water Temp Dewpoint Dewpoint Depression Visibility Wind Speed Wind Dir Waves Ship Positions

Ocean Trader

Last reported at 2016-Sep-24 02:29 UTC. Time now 2016-Sep-26 07:01 UTC.
Position N 39°44' W 009°50'.

Length 107 m; draft 8.3 m.

Type: Cargo ship. MMSI: 305780000.

Date/timePositionNaut miles runAvg speedWind from/ knotsBaromVisibWave heightAir tempDewpointWater temp
2016-Sep-24 02:29N 39°44' W 009°50'1110.8
2016-Sep-24 01:28N 39°33' W 009°50'910.3
2016-Sep-24 00:33N 39°23' W 009°50'5210.4
2016-Sep-23 19:33N 38°31' W 009°47'2010.1
2016-Sep-23 17:33N 38°11' W 009°42'1010.1
2016-Sep-23 16:33N 38°02' W 009°39'1010.3
2016-Sep-23 15:33N 37°52' W 009°36'342 8.8
2016-Sep-22 00:33N 36°22' W 002°42'1110.7
2016-Sep-21 23:34N 36°24' W 002°29'1010.3
2016-Sep-21 22:34N 36°26' W 002°17'3110.3
2016-Sep-21 19:33N 36°48' W 001°50'  
2016-Sep-17 13:33N 35°43' W 000°38'222 8.9
2016-Sep-16 12:33N 35°58' W 005°12'295 9.2
2016-Sep-15 04:33N 38°57' W 010°06'1111.3
2016-Sep-15 03:33N 39°08' W 010°06'  

Dump ship's entire track history